Weather observations for the past three days for
Andover, Aeroflex-Andover Airport
Metric (Imperial)
Date Time (edt) Wind (kph) Vis. (km) Weather Sky Cond. Temperature (ºC) Relative Humidity Wind Chill (°C) Heat Index (°C) Pressure Precipitation (cm)
Air Dwpt 6 hour altimeter (cm) sea level (mb) 1 hr 3 hr 6 hr
Max. Min.
02 15:54 Calm 0.00 NULL NULL 19.4 17.8 91% 76.48 1019.1
02 14:54 Calm 0.00 NULL NULL 18.9 17.2 90% 76.56 1020.1
02 13:54 Calm 0.00 NULL NULL 18.9 17.2 19.4 18.3 90% 76.56 1020.3 0.08 0.08
02 12:54 Calm 0.00 NULL NULL 18.9 17.2 90% 76.58 1020.4
02 11:54 Calm 0.00 NULL NULL 19.4 17.2 87% 76.58 1020.3
02 10:54 Calm 0.00 NULL NULL 19.4 16.7 84% 76.61 1020.5
02 09:54 Calm 0.00 NULL NULL 18.9 17.2 90% 76.56 1020.0
02 08:54 Vrbl 6 0.00 NULL NULL 18.9 16.7 87% 76.56 1019.9
02 07:54 Vrbl 6 0.00 NULL NULL 18.9 16.7 19.4 18.9 87% 76.5 1019.4
02 06:54 Calm 0.00 NULL NULL 18.9 16.7 87% 76.5 1019.1
02 05:54 Calm 0.00 NULL NULL 19.4 16.7 84% 76.5 1019.1
02 04:54 Calm 0.00 NULL NULL 18.9 16.7 87% 76.45 1018.3
02 03:54 Calm 0.00 NULL NULL 18.9 16.7 87% 76.43 1018.1
02 02:54 Calm 0.00 NULL NULL 19.4 17.2 87% 76.4 1017.8
02 01:54 Calm 0.00 NULL NULL 19.4 17.8 23.9 19.4 91% 76.4 1018.0
02 00:54 Calm 0.00 NULL NULL 20 18.3 90% 76.4 1017.9
01 23:54 Calm 0.00 NULL NULL 20.6 18.9 90% 76.38 1017.5
01 22:54 Calm 0.00 NULL NULL 22.8 21.1 90% 76.28 1016.1
01 21:54 NE 6 0.00 NULL NULL 22.8 20.6 87% 76.2 1015.2
01 20:54 Calm 0.00 NULL NULL 23.3 20 82% 76.2 1015.0
01 19:54 Calm 0.00 NULL NULL 23.9 21.1 28.9 23.9 84% 24 76.12 1014.2
01 18:54 E 6 0.00 NULL NULL 26.1 22.8 82% 28 76.1 1013.9
01 17:54 Calm 0.00 NULL NULL 26.1 23.3 85% 28 76.05 1013.1
01 16:54 SW 6 0.00 NULL NULL 28.9 22.2 67% 32 76.07 1013.3
01 15:54 SW 7 0.00 NULL NULL 27.8 22.2 72% 30 76.1 1013.5
01 14:54 SW 6 0.00 NULL NULL 27.8 22.2 72% 30 76.1 1013.8
01 13:54 SW 11 0.00 NULL NULL 26.1 21.7 26.7 21.1 77% 28 76.1 1013.9 0.23
01 12:54 Calm 0.00 NULL NULL 24.4 21.7 85% 25 76.17 1014.7
01 11:54 Calm 0.00 NULL NULL 22.8 21.1 90% 76.2 1015.3 0.08
01 10:54 Calm 0.00 NULL NULL 22.2 20.6 91% 76.25 1016.0 0.15 0.15
01 09:54 Calm 0.00 NULL NULL 22.2 20.6 91% 76.23 1015.7
01 08:54 SW 6 0.00 NULL NULL 21.1 20 93% 76.25 1015.8
01 07:54 Calm 0.00 NULL NULL 21.1 19.4 21.1 19.4 90% 76.23 1015.6 0.03 0.05
01 06:54 Calm 0.00 NULL NULL 20 18.9 93% 76.25 1015.8 0.03
01 05:54 Calm 0.00 NULL NULL 20 18.9 93% 76.23 1015.6
01 04:54 Calm 0.00 NULL NULL 20 18.9 93% 76.25 1015.8
01 03:54 Calm 0.00 NULL NULL 20 18.9 93% 76.28 1016.3
01 02:54 Calm 0.00 NULL NULL 20 18.9 93% 76.3 1016.5
01 01:54 Calm 0.00 NULL NULL 20 19.4 21.1 20 96% 76.33 1016.8 0.2
01 00:54 Calm 0.00 NULL NULL 20.6 19.4 93% 76.35 1017.0
31 23:54 Calm 0.00 NULL NULL 20.6 18.9 90% 76.35 1017.1 0.2
31 22:54 Calm 0.00 NULL NULL 20.6 18.9 90% 76.38 1017.4
31 21:54 Calm 0.00 NULL NULL 21.1 18.9 87% 76.4 1018.1
31 20:54 Calm 0.00 NULL NULL 21.1 19.4 90% 76.43 1018.1
31 19:54 Calm 0.00 NULL NULL 21.1 18.9 23.3 21.1 87% 76.4 1017.9 0.05
31 18:54 Calm 0.00 NULL NULL 22.2 18.9 82% 76.43 1018.4
31 17:54 SW 6 0.00 NULL NULL 22.8 18.9 79% 76.43 1018.3
31 16:54 Calm 0.00 NULL NULL 22.8 18.9 79% 76.45 1018.6 0.05
31 15:54 SW 6 0.00 NULL NULL 22.2 18.9 82% 76.48 1019.0 0.03
31 14:54 Calm 0.00 NULL NULL 21.7 17.8 79% 76.56 1020.0 0.03
31 13:54 Calm 0.00 NULL NULL 22.2 18.3 25.6 18.9 79% 76.53 1019.8
31 12:54 Vrbl 7 0.00 NULL NULL 25.6 17.2 60% 27 76.53 1019.5
31 11:54 Vrbl 6 0.00 NULL NULL 25.6 17.8 62% 27 76.56 1020.0
31 10:54 Calm 0.00 NULL NULL 23.9 16.7 64% 25 76.58 1020.2
31 09:54 Calm 0.00 NULL NULL 21.7 16.1 71% 76.61 1020.6
31 08:54 Calm 0.00 NULL NULL 20.6 16.7 78% 76.58 1020.3
31 07:54 Calm 0.00 NULL NULL 18.9 17.2 19.4 17.8 90% 76.58 1020.4
31 06:54 Calm 0.00 NULL NULL 18.3 17.2 93% 76.53 1019.6
31 05:54 N 6 0.00 NULL NULL 18.3 16.7 90% 76.5 1019.3
31 04:54 Calm 0.00 NULL NULL 18.3 17.2 93% 76.48 1019.1
31 03:54 Calm 0.00 NULL NULL 18.9 17.2 90% 76.48 1019.0
31 02:54 Calm 0.00 NULL NULL 19.4 17.8 91% 76.5 1019.2
31 01:54 Calm 0.00 NULL NULL 18.9 17.8 21.7 18.9 93% 76.5 1019.4 0.03
31 00:54 Calm 0.00 NULL NULL 18.9 17.8 93% 76.48 1019.2
30 23:54 Calm 0.00 NULL NULL 19.4 18.3 93% 76.5 1019.3
30 22:54 Calm 0.00 NULL NULL 20.6 19.4 93% 76.5 1019.3 0.03
30 21:54 Calm 0.00 NULL NULL 21.1 20 93% 76.53 1019.5
30 20:54 Calm 0.00 NULL NULL 21.7 20 90% 76.48 1019.2 0.03
30 19:54 Calm 0.00 NULL NULL 21.7 20 25 20.6 90% 76.43 1018.4
30 18:54 Calm 0.00 NULL NULL 22.2 20 87% 76.4 1018.1
30 17:54 Calm 0.00 NULL NULL 23.3 20 82% 76.4 1018.3
30 16:54 SW 9 0.00 NULL NULL 23.9 19.4 76% 24 76.4 1018.1
Date Time (edt) Wind (kph) Vis. (km) Weather Sky Cond. Air Dwpt Max. Min. Relative Humidity Wind Chill (°C) Heat Index (°C) altimeter (cm) sea level (mb) 1 hr 3 hr 6 hr
6 hour
Temperature (ºC) Pressure Precipitation (cm)